KBFI/BFI METAR and TAF weather

Enter ICAO airport designator
Station Type Date Time Source
KBFI METAR 2022/01/26 13:53 UTC NOAA

KBFI 261353Z VRB03KT 2SM BR OVC004 01/01 A3026 RMK AO2 SLP246 T00110006


Station Type Date Time Source
KBFI Decoded METAR 2022/01/26 13:53 UTC NOAA

SEATTLE BOEING FIELD, WA, United States (KBFI) 47-33N 122-19W 4M
Jan 26, 2022 - 08:53 AM EST / 2022.01.26 1353 UTC
Wind: Variable at 3 MPH (3 KT):0
Visibility: 2 mile(s):0
Sky conditions: overcast
Weather: mist
Temperature: 34.0 F (1.1 C)
Dew Point: 33.1 F (0.6 C)
Relative Humidity: 96%
Pressure (altimeter): 30.26 in. Hg (1024 hPa)
ob: KBFI 261353Z VRB03KT 2SM BR OVC004 01/01 A3026 RMK AO2 SLP246 T00110006
cycle: 14

Station Type Date Time Source
KBFI TAF 2022/01/26 14:36 UTC NOAA

TAF
AMD KBFI 261333Z 2614/2712 01002KT 2SM BR OVC003
FM261800 04002KT 1SM BR OVC005
FM262100 33004KT P6SM SKC
FM270500 00000KT 6SM BR BKN250
FM271000 30002KT 4SM BR BKN003

Example: see airport list